OIKQ  Dayrestan  Airport

Iran

Add Bookmark
ICAO OIKQ
Type Airport
Status Operational
Latitude
26° 45' 16" N
26.754601
Longitude
55° 54' 8" E
55.902401
Local (GMT +4.5 ) UTC
May 5, 2016 01:45 am May 4, 2016 21:15
Sunrise-Sunset Local UTC
Begin Civil Twilight 05:38 am 01:08
Sunrise 06:03 am 01:33
Sunset 07:22 pm 14:52
End Civil Twilight 07:47 pm 15:17
VFR
VFR
MVFR
MVFR
IFR
IFR
LIFR
LIFR
Unknown
Unavailable

Current Weather

METAR Observed MVFR
OIKQ 042100Z 22008KT 5000 HZ FEW030 SCT200 26/22 Q1004 Wed, May 4, 2016 @ 21:00 UTC
(15 Minutes ago)
Marginal Visual Flight Rules
Wind Visibility Clouds Conditions
220° at 8 knots (15 kph) 5,005 m
  • Few at 3,000 ft AGL
  • Scattered at 20,000 ft AGL
  • Haze
Temperatures Readings Precipitation
Current Temp
26°C
79°F
Dewpoint
22°C
72°F
Humidity 79%
Altimeter 29.65" Hg
Sea Level Pressure 1,004 mb
Field Elevation
12 m
39 ft
None Recorded

Additional weather within a 92.6km radius of OIKQ

Map ICAO Location
OIKB 69.8km NE (042°)
VFR
VFR
MVFR
MVFR
IFR
IFR
LIFR
LIFR
Unknown
Unavailable
-
-

CheckWX.com is intended as a tool to help pilots better visualize weather data. It is not intended as a substitute for an official weather briefing obtained from a Flight Service Station. CheckWX.com does not meet the FAA requirements for an official pre-flight weather briefing. Therefore, it's important that pilots still call and obtain an official FSS pre-flight weather briefing.

© 2007-2016 CheckWX.com
21:15:32 UTC